Aeroporto :
LOGIN :

Iscrizione | Disclaimer

   EN    FR    IT 

 










Sommario :    VFR   VFR Marginale   IFR   IFR Intensivo   IFR Molto Intensivo
Visibilità : 
Base nubi : 
>= 8 km
>= 3000ft
5 / 8 km
1000 / 3000 ft
1500m / 5 km
500 / 1000 ft
800 / 1500m
200 / 500 ft
< 800m
< 200 ft
Simboli :   Temporali  Nebbia  Neve Forte  Precipitazioni Forti  Vento > 20 kt
SIGMETs :   Varie  Temporali  Ghiacco  Turbolenza  Onda orograficha  Ceneri Vulcaniche






- Altitudine del aeroporto : 408 ft
- Codice IATA : KWG


UKDR - Lozuvatka

ULTIMO METAR :
  • 270230Z 15004MPS 7000 NSC 05/03 Q0997 R18/09//70 NOSIG

METARs OBSOLETI :
  • 270200Z 15004MPS 8000 NSC 05/03 Q0997 R18/09//70 NOSIG
  • 270130Z 16004MPS 9000 NSC 04/03 Q0997 R18/09//70 NOSIG
  • 270100Z 16004MPS 140V210 CAVOK 05/03 Q0997 R18/09//70 NOSIG
  • 270030Z 16005MPS 140V240 CAVOK 05/03 Q0998 R18/09//70 NOSIG
  • 270000Z 16004MPS 130V200 CAVOK 05/03 Q0998 R18/09//70 NOSIG
  • 262330Z 16005MPS 9000 NSC 05/03 Q0998 R18/09//70 NOSIG

TAF TAF UKDR
Valido dal 27 a 00 ore il 28 a 00 ore UTC


262310Z 2700/2724 18006MPS 2100 BR OVC007 TX14/2712Z TN03/2703Z
TEMPO 2700/2706 1100 BR OVC003
BECMG 2708/2710 19007G12MPS 9999 NSW BKN015
TEMPO 2718/2724 36006MPS 2100 -SHRA BR BKN007 BKN015CB



MetMap, La meteo Aeronautica in un colpo d'occhio ! - Copyright ORBIFLY Dicembre 2007 - Disclaimer

ORBIFLY MET'MAP TEAM :

Programmazione e sviluppo : Alexandra Zaïnal
Concezione : Baudouin d'Aumeries
Aiuto per la programmazione : Marc-Olivier Méhu
Supporto tecnico e logistico : Manuel Goepfert
Aiuto per la traduzione : Arnaldo La Scala

Contatto : metmap@orbifly.com




FONTI E CREDITI :

   NOAA